createdAt,value
2023-01-26T00:00:05.432Z,3.57
2023-01-26T00:02:33.813Z,4.40
2023-01-26T00:05:02.180Z,5.60
2023-01-26T00:07:30.808Z,4.00
2023-01-26T00:09:59.175Z,7.37
2023-01-26T00:12:27.553Z,5.23
2023-01-26T00:14:56.016Z,4.50
2023-01-26T00:17:27.269Z,5.83
2023-01-26T00:19:57.960Z,5.77
2023-01-26T00:22:28.656Z,6.17
2023-01-26T00:24:57.115Z,5.63
2023-01-26T00:27:25.564Z,6.03
2023-01-26T00:29:54.086Z,7.10
2023-01-26T00:32:22.588Z,5.70
2023-01-26T00:34:51.071Z,5.87
2023-01-26T00:37:19.467Z,4.80
2023-01-26T00:39:48.191Z,4.90
2023-01-26T00:42:16.777Z,5.53
2023-01-26T00:44:45.306Z,4.50
2023-01-26T00:47:15.063Z,7.20
2023-01-26T00:49:43.651Z,8.53
2023-01-26T00:52:15.643Z,5.70
2023-01-26T00:54:44.093Z,4.60
2023-01-26T00:57:12.786Z,4.30
2023-01-26T00:59:41.162Z,6.97
2023-01-26T01:02:09.656Z,5.63
2023-01-26T01:04:38.124Z,9.07
2023-01-26T01:07:06.506Z,6.90
2023-01-26T01:09:34.959Z,8.07
2023-01-26T01:12:03.440Z,5.37
2023-01-26T01:14:31.911Z,6.43
2023-01-26T01:17:00.448Z,5.70
2023-01-26T01:19:29.306Z,6.00
2023-01-26T01:21:57.694Z,4.33
2023-01-26T01:24:26.495Z,5.73
2023-01-26T01:26:54.855Z,5.20
2023-01-26T01:29:23.207Z,7.97
2023-01-26T01:31:51.669Z,7.50
2023-01-26T01:34:20.108Z,6.23
2023-01-26T01:36:48.673Z,6.47
2023-01-26T01:41:43.725Z,6.80
2023-01-26T01:44:24.253Z,6.13
2023-01-26T01:46:52.683Z,5.50
2023-01-26T01:50:05.344Z,6.30
2023-01-26T01:52:33.835Z,8.57
2023-01-26T01:55:08.296Z,6.37
2023-01-26T01:57:48.694Z,7.47
2023-01-26T02:00:21.575Z,9.90
2023-01-26T02:03:19.930Z,7.53
2023-01-26T02:06:22.107Z,8.57
2023-01-26T02:08:54.296Z,8.23
2023-01-26T02:11:31.470Z,9.83
2023-01-26T02:14:01.671Z,8.93
2023-01-26T02:16:30.133Z,9.57
2023-01-26T02:18:58.603Z,9.33
2023-01-26T02:21:27.527Z,10.40
2023-01-26T02:24:13.669Z,9.43
2023-01-26T02:26:42.467Z,8.80
2023-01-26T02:29:12.265Z,10.03
2023-01-26T02:31:42.335Z,9.30
2023-01-26T02:34:10.761Z,11.13
2023-01-26T02:36:39.425Z,11.13
2023-01-26T02:39:34.364Z,10.77
2023-01-26T02:42:21.413Z,8.03
2023-01-26T02:44:49.938Z,10.73
2023-01-26T02:47:20.410Z,8.40
2023-01-26T02:49:48.830Z,8.93
2023-01-26T02:52:24.731Z,14.33
2023-01-26T02:55:12.061Z,11.00
2023-01-26T02:57:40.794Z,10.43
2023-01-26T03:00:18.133Z,9.70
2023-01-26T03:02:49.038Z,8.93
2023-01-26T03:05:17.514Z,8.87
2023-01-26T03:07:46.008Z,9.13
2023-01-26T03:10:14.794Z,8.60
2023-01-26T03:12:43.342Z,11.27
2023-01-26T03:15:30.806Z,12.70
2023-01-26T03:18:29.909Z,9.87
2023-01-26T03:21:19.576Z,10.13
2023-01-26T03:24:06.887Z,11.27
2023-01-26T03:26:54.005Z,9.23
2023-01-26T03:29:23.036Z,9.57
2023-01-26T03:31:51.410Z,10.23
2023-01-26T03:34:21.290Z,10.67
2023-01-26T03:36:52.722Z,17.43
2023-01-26T03:39:39.659Z,13.57
2023-01-26T03:42:26.574Z,21.63
2023-01-26T03:45:13.505Z,18.60
2023-01-26T03:48:00.350Z,21.40
2023-01-26T03:50:47.367Z,13.83
2023-01-26T03:53:38.648Z,17.50
2023-01-26T03:56:37.241Z,13.20
2023-01-26T03:59:10.845Z,13.10
2023-01-26T04:01:42.636Z,11.53
2023-01-26T04:04:30.919Z,10.03
2023-01-26T04:07:17.820Z,10.70
2023-01-26T04:09:46.174Z,10.33
2023-01-26T04:12:14.921Z,10.60
2023-01-26T04:15:01.851Z,11.60
2023-01-26T04:17:48.779Z,12.43
2023-01-26T04:20:35.800Z,14.30
2023-01-26T04:23:04.199Z,10.73
2023-01-26T04:25:32.574Z,13.07
2023-01-26T04:28:00.968Z,12.13
2023-01-26T04:30:29.367Z,13.17
2023-01-26T04:32:57.790Z,11.70
2023-01-26T04:35:26.210Z,11.53
2023-01-26T04:37:54.579Z,11.37
2023-01-26T04:40:23.010Z,11.00
2023-01-26T04:42:51.394Z,12.47
2023-01-26T04:45:19.765Z,10.40
2023-01-26T04:47:48.204Z,14.23
2023-01-26T04:50:16.870Z,12.17
2023-01-26T04:52:45.391Z,14.67
2023-01-26T04:55:13.783Z,19.27
2023-01-26T04:57:42.187Z,16.33
2023-01-26T05:00:13.058Z,14.93
2023-01-26T05:02:41.725Z,14.10
2023-01-26T05:05:10.602Z,15.67
2023-01-26T05:07:38.962Z,15.97
2023-01-26T05:10:07.793Z,12.43
2023-01-26T05:12:36.392Z,13.53
2023-01-26T05:15:04.943Z,14.60
2023-01-26T05:17:33.534Z,12.83
2023-01-26T05:20:01.941Z,16.10
2023-01-26T05:22:30.307Z,17.83
2023-01-26T05:24:58.668Z,14.40
2023-01-26T05:27:27.120Z,13.47
2023-01-26T05:30:01.075Z,14.23
2023-01-26T05:32:31.205Z,13.77
2023-01-26T05:34:59.693Z,15.13
2023-01-26T05:37:29.527Z,16.10
2023-01-26T05:39:58.011Z,16.40
2023-01-26T05:42:27.238Z,14.87
2023-01-26T05:44:55.658Z,15.80
2023-01-26T05:47:24.243Z,15.93
2023-01-26T05:49:52.742Z,15.17
2023-01-26T05:52:23.012Z,19.40
2023-01-26T05:54:51.418Z,17.33
2023-01-26T05:57:20.036Z,17.10
2023-01-26T05:59:48.490Z,14.83
2023-01-26T06:02:17.223Z,16.17
2023-01-26T06:04:45.699Z,18.60
2023-01-26T06:07:17.161Z,16.20
2023-01-26T06:09:46.438Z,18.73
2023-01-26T06:12:20.601Z,18.33
2023-01-26T06:14:49.081Z,18.90
2023-01-26T06:17:18.650Z,17.23
2023-01-26T06:19:47.081Z,22.33
2023-01-26T06:22:16.185Z,21.80
2023-01-26T06:24:44.608Z,20.50
2023-01-26T06:27:17.658Z,18.67
2023-01-26T06:29:46.854Z,21.43
2023-01-26T06:32:16.017Z,20.40
2023-01-26T06:34:44.466Z,22.10
2023-01-26T06:37:14.728Z,17.90
2023-01-26T06:39:43.263Z,19.07
2023-01-26T06:42:11.776Z,20.43
2023-01-26T06:44:40.167Z,24.20
2023-01-26T06:47:08.545Z,21.10
2023-01-26T06:49:37.022Z,26.93
2023-01-26T06:52:32.292Z,25.20
2023-01-26T06:55:01.717Z,21.97
2023-01-26T06:57:30.162Z,19.23
2023-01-26T06:59:58.781Z,21.90
2023-01-26T07:02:27.210Z,17.70
2023-01-26T07:04:55.613Z,18.27
2023-01-26T07:07:24.004Z,21.30
2023-01-26T07:09:52.678Z,21.00
2023-01-26T07:12:21.075Z,18.60
2023-01-26T07:14:52.134Z,21.13
2023-01-26T07:17:20.872Z,18.50
2023-01-26T07:19:49.269Z,19.30
2023-01-26T07:22:17.664Z,19.00
2023-01-26T07:24:46.018Z,21.20
2023-01-26T07:27:14.375Z,19.60
2023-01-26T07:29:42.800Z,21.00
2023-01-26T07:32:11.212Z,21.70
2023-01-26T07:34:39.590Z,17.67
2023-01-26T07:37:08.115Z,22.30
2023-01-26T07:39:36.524Z,21.10
2023-01-26T07:42:05.047Z,18.50
2023-01-26T07:44:33.562Z,16.73
2023-01-26T07:47:01.971Z,20.30
2023-01-26T07:49:30.369Z,23.77
2023-01-26T07:51:58.788Z,19.27
2023-01-26T07:54:27.205Z,21.20
2023-01-26T07:56:55.990Z,19.83
2023-01-26T07:59:25.010Z,24.43
2023-01-26T08:01:53.751Z,29.53
2023-01-26T08:04:22.210Z,26.07
2023-01-26T08:06:53.717Z,17.60
2023-01-26T08:09:22.434Z,21.23
2023-01-26T08:11:50.805Z,19.40
2023-01-26T08:14:19.342Z,19.13
2023-01-26T08:16:48.385Z,19.90
2023-01-26T08:19:16.858Z,20.60
2023-01-26T08:21:45.419Z,19.97
2023-01-26T08:24:14.350Z,21.43
2023-01-26T08:26:42.916Z,19.30
2023-01-26T08:29:11.472Z,18.73
2023-01-26T08:31:39.902Z,19.50
2023-01-26T08:34:08.289Z,20.10
2023-01-26T08:36:36.749Z,17.70
2023-01-26T08:39:05.257Z,19.67
2023-01-26T08:41:34.352Z,19.07
2023-01-26T08:44:02.871Z,21.20
2023-01-26T08:46:31.250Z,19.80
2023-01-26T08:49:00.564Z,17.13
2023-01-26T08:51:29.222Z,22.87
2023-01-26T08:53:57.720Z,18.63
2023-01-26T08:56:26.111Z,19.90
2023-01-26T08:58:54.542Z,19.83
2023-01-26T09:01:22.957Z,17.63
2023-01-26T09:03:53.680Z,23.53
2023-01-26T09:06:22.180Z,21.07
2023-01-26T09:08:50.625Z,20.10
2023-01-26T09:11:18.997Z,16.93
2023-01-26T09:13:57.349Z,19.97
2023-01-26T09:16:26.432Z,19.87
2023-01-26T09:18:55.299Z,21.67
2023-01-26T09:21:26.854Z,21.07
2023-01-26T09:23:58.036Z,18.57
2023-01-26T09:26:26.464Z,21.60
2023-01-26T09:28:54.867Z,22.43
2023-01-26T09:31:23.365Z,18.87
2023-01-26T09:33:52.606Z,22.33
2023-01-26T09:36:21.002Z,22.63
2023-01-26T09:38:49.417Z,21.37
2023-01-26T09:41:44.102Z,20.87
2023-01-26T09:44:19.599Z,21.27
2023-01-26T09:47:19.618Z,22.53
2023-01-26T09:50:00.832Z,20.63
2023-01-26T09:52:31.915Z,19.10
2023-01-26T09:55:04.426Z,24.87
2023-01-26T09:57:43.113Z,22.83
2023-01-26T10:00:21.158Z,22.07
2023-01-26T10:03:11.061Z,22.97
2023-01-26T10:06:06.969Z,19.50
2023-01-26T10:08:35.653Z,25.57
2023-01-26T10:11:11.366Z,23.23
2023-01-26T10:13:39.881Z,26.77
2023-01-26T10:16:11.407Z,20.77
2023-01-26T10:19:04.755Z,22.07
2023-01-26T10:21:38.036Z,23.27
2023-01-26T10:24:07.040Z,19.20
2023-01-26T10:26:35.541Z,19.67
2023-01-26T10:29:05.466Z,18.90
2023-01-26T10:31:35.674Z,19.80
2023-01-26T10:34:15.736Z,21.40
2023-01-26T10:36:47.205Z,21.50
2023-01-26T10:39:18.329Z,18.13
2023-01-26T10:42:18.969Z,22.33
2023-01-26T10:44:47.868Z,21.77
2023-01-26T10:47:21.416Z,21.50
2023-01-26T10:49:50.755Z,17.50
2023-01-26T10:52:26.381Z,21.93
2023-01-26T10:55:21.715Z,23.37
2023-01-26T10:57:50.350Z,21.33
2023-01-26T11:00:25.057Z,18.47
2023-01-26T11:03:04.418Z,18.20
2023-01-26T11:05:33.204Z,21.80
2023-01-26T11:08:03.826Z,19.67
2023-01-26T11:10:39.938Z,22.80
2023-01-26T11:13:22.831Z,19.47
2023-01-26T11:16:11.855Z,16.40
2023-01-26T11:19:01.599Z,18.20
2023-01-26T11:21:36.188Z,18.80
2023-01-26T11:24:26.619Z,20.53
2023-01-26T11:27:19.794Z,22.77
2023-01-26T11:29:56.424Z,18.67
2023-01-26T11:32:50.437Z,17.93
2023-01-26T11:35:51.140Z,19.27
2023-01-26T11:38:41.118Z,18.53
2023-01-26T11:41:46.254Z,18.50
2023-01-26T11:44:22.798Z,17.33
2023-01-26T11:47:14.073Z,19.17
2023-01-26T11:50:08.944Z,19.20
2023-01-26T11:52:47.367Z,21.50
2023-01-26T11:55:26.834Z,23.07
2023-01-26T11:58:13.670Z,21.07
2023-01-26T12:01:10.738Z,21.10
2023-01-26T12:03:47.614Z,23.03
2023-01-26T12:06:22.061Z,22.90
2023-01-26T12:09:04.265Z,21.40
2023-01-26T12:12:11.048Z,17.97
2023-01-26T12:14:42.252Z,20.37
2023-01-26T12:17:32.411Z,21.93
2023-01-26T12:20:25.304Z,18.40
2023-01-26T12:23:11.601Z,22.23
2023-01-26T12:25:42.006Z,17.37
2023-01-26T12:28:23.016Z,19.53
2023-01-26T12:31:10.789Z,18.27
2023-01-26T12:33:39.713Z,19.60
2023-01-26T12:36:20.255Z,19.27
2023-01-26T12:39:09.590Z,21.40
2023-01-26T12:41:43.704Z,17.97
2023-01-26T12:44:34.361Z,21.97
2023-01-26T12:47:24.555Z,20.47
2023-01-26T12:50:09.506Z,19.93
2023-01-26T12:52:44.454Z,20.20
2023-01-26T12:55:36.484Z,20.73
2023-01-26T12:58:12.290Z,21.83
2023-01-26T13:00:41.476Z,17.80
2023-01-26T13:03:26.851Z,20.70
2023-01-26T13:06:19.929Z,19.00
2023-01-26T13:09:21.157Z,18.60
2023-01-26T13:12:02.304Z,18.47
2023-01-26T13:15:00.835Z,21.97
2023-01-26T13:17:29.204Z,18.40
2023-01-26T13:20:00.872Z,20.37
2023-01-26T13:22:42.618Z,21.23
2023-01-26T13:25:35.107Z,22.33
2023-01-26T13:28:14.778Z,22.83
2023-01-26T13:30:47.279Z,23.23
2023-01-26T13:33:23.941Z,22.30
2023-01-26T13:35:55.522Z,22.33
2023-01-26T13:38:29.219Z,23.30
2023-01-26T13:40:59.768Z,17.87
2023-01-26T13:43:43.553Z,25.10
2023-01-26T13:46:36.176Z,18.63
2023-01-26T13:49:04.719Z,23.83
2023-01-26T13:51:35.489Z,23.10
2023-01-26T13:54:03.798Z,22.57
2023-01-26T13:56:38.117Z,21.50
2023-01-26T13:59:15.853Z,28.10
2023-01-26T14:01:44.251Z,30.77
2023-01-26T14:04:30.591Z,22.17
2023-01-26T14:07:07.852Z,21.13
2023-01-26T14:09:56.039Z,26.90
2023-01-26T14:12:26.183Z,19.97
2023-01-26T14:14:57.068Z,19.30
2023-01-26T14:17:33.758Z,24.03
2023-01-26T14:20:04.491Z,19.07
2023-01-26T14:22:32.954Z,22.37
2023-01-26T14:25:01.391Z,18.53
2023-01-26T14:27:40.105Z,19.10
2023-01-26T14:30:23.945Z,19.13
2023-01-26T14:33:04.948Z,22.10
2023-01-26T14:35:33.857Z,19.47
2023-01-26T14:38:16.723Z,21.70
2023-01-26T14:40:55.877Z,18.03
2023-01-26T14:43:24.956Z,17.17
2023-01-26T14:46:11.946Z,22.47
2023-01-26T14:48:51.827Z,16.73
2023-01-26T14:51:23.706Z,21.70
2023-01-26T14:54:26.161Z,19.07
2023-01-26T14:56:54.719Z,18.37
2023-01-26T14:59:28.538Z,16.93
2023-01-26T15:02:18.479Z,16.43
2023-01-26T15:05:21.455Z,19.57
2023-01-26T15:08:08.073Z,19.73
2023-01-26T15:10:41.488Z,20.13
2023-01-26T15:13:12.753Z,18.03
2023-01-26T15:15:43.663Z,15.30
2023-01-26T15:18:15.057Z,16.07
2023-01-26T15:20:51.272Z,19.63
2023-01-26T15:23:28.061Z,15.90
2023-01-26T15:25:57.222Z,16.30
2023-01-26T15:28:27.264Z,17.07
2023-01-26T15:30:58.734Z,13.77
2023-01-26T15:33:42.083Z,13.77
2023-01-26T15:36:36.825Z,13.30
2023-01-26T15:39:16.359Z,16.73
2023-01-26T15:41:46.577Z,14.93
2023-01-26T15:44:17.846Z,13.23
2023-01-26T15:46:47.249Z,16.00
2023-01-26T15:49:20.707Z,14.03
2023-01-26T15:51:49.108Z,14.23
2023-01-26T15:54:17.578Z,13.97
2023-01-26T15:56:46.079Z,12.33
2023-01-26T15:59:14.516Z,16.30
2023-01-26T16:01:43.011Z,13.97
2023-01-26T16:04:14.749Z,15.10
2023-01-26T16:06:43.367Z,15.00
2023-01-26T16:09:11.723Z,12.27
2023-01-26T16:11:52.227Z,12.73
2023-01-26T16:14:21.136Z,15.70
2023-01-26T16:16:49.946Z,18.30
2023-01-26T16:19:34.438Z,13.57
2023-01-26T16:22:03.630Z,14.17
2023-01-26T16:24:31.997Z,11.97
2023-01-26T16:27:00.425Z,12.27
2023-01-26T16:29:28.943Z,18.40
2023-01-26T16:31:57.386Z,13.73
2023-01-26T16:34:25.781Z,13.60
2023-01-26T16:36:54.340Z,14.30
2023-01-26T16:39:23.030Z,16.63
2023-01-26T16:41:51.514Z,15.60
2023-01-26T16:44:20.599Z,15.50
2023-01-26T16:46:48.987Z,13.80
2023-01-26T16:49:17.540Z,14.53
2023-01-26T16:51:46.246Z,12.90
2023-01-26T16:54:14.642Z,14.43
2023-01-26T16:56:43.087Z,14.03
2023-01-26T16:59:11.613Z,13.80
2023-01-26T17:01:41.198Z,13.97
2023-01-26T17:04:11.856Z,15.07
2023-01-26T17:06:40.258Z,14.90
2023-01-26T17:09:08.656Z,13.50
2023-01-26T17:11:37.065Z,15.37
2023-01-26T17:14:05.585Z,14.20
2023-01-26T17:16:34.098Z,14.33
2023-01-26T17:19:03.162Z,12.30
2023-01-26T17:21:31.522Z,15.27
2023-01-26T17:24:00.085Z,15.00
2023-01-26T17:26:28.685Z,17.20
2023-01-26T17:28:57.407Z,17.17
2023-01-26T17:31:26.644Z,14.50
2023-01-26T17:33:56.401Z,16.37
2023-01-26T17:36:24.883Z,15.70
2023-01-26T17:38:53.920Z,15.83
2023-01-26T17:41:22.386Z,16.47
2023-01-26T17:43:52.068Z,21.07
2023-01-26T17:46:22.648Z,14.40
2023-01-26T17:48:51.806Z,16.20
2023-01-26T17:51:22.196Z,15.97
2023-01-26T17:53:51.553Z,12.30
2023-01-26T17:56:22.025Z,18.93
2023-01-26T17:58:55.549Z,16.00
2023-01-26T18:01:27.736Z,17.20
2023-01-26T18:03:56.386Z,14.23
2023-01-26T18:06:24.830Z,14.57
2023-01-26T18:08:53.225Z,14.30
2023-01-26T18:11:22.597Z,12.53
2023-01-26T18:13:52.635Z,11.90
2023-01-26T18:16:22.101Z,14.70
2023-01-26T18:18:54.774Z,13.30
2023-01-26T18:21:26.479Z,13.60
2023-01-26T18:23:58.691Z,16.33
2023-01-26T18:26:30.098Z,14.13
2023-01-26T18:28:59.337Z,15.23
2023-01-26T18:31:30.755Z,13.53
2023-01-26T18:34:00.806Z,13.10
2023-01-26T18:36:30.314Z,13.60
2023-01-26T18:39:05.921Z,13.70
2023-01-26T18:41:34.797Z,12.77
2023-01-26T18:44:04.527Z,13.40
2023-01-26T18:46:33.048Z,11.97
2023-01-26T18:49:01.514Z,14.07
2023-01-26T18:51:37.927Z,12.63
2023-01-26T18:54:06.569Z,12.43
2023-01-26T18:56:35.839Z,13.50
2023-01-26T18:59:04.295Z,15.07
2023-01-26T19:01:32.740Z,13.20
2023-01-26T19:04:03.632Z,13.80
2023-01-26T19:06:33.423Z,13.60
2023-01-26T19:09:07.876Z,16.43
2023-01-26T19:11:38.912Z,19.33
2023-01-26T19:14:08.557Z,12.73
2023-01-26T19:16:37.163Z,14.73
2023-01-26T19:19:06.038Z,13.83
2023-01-26T19:21:34.525Z,14.57
2023-01-26T19:24:09.093Z,17.40
2023-01-26T19:26:37.505Z,15.40
2023-01-26T19:29:06.430Z,18.20
2023-01-26T19:31:36.641Z,15.23
2023-01-26T19:34:07.569Z,16.60
2023-01-26T19:36:37.399Z,19.33
2023-01-26T19:39:07.100Z,15.73
2023-01-26T19:41:36.014Z,13.50
2023-01-26T19:44:04.388Z,17.17
2023-01-26T19:46:33.282Z,14.77
2023-01-26T19:49:01.831Z,14.83
2023-01-26T19:51:30.332Z,18.53
2023-01-26T19:54:00.299Z,20.60
2023-01-26T19:56:31.491Z,14.93
2023-01-26T19:59:02.053Z,14.70
2023-01-26T20:01:32.243Z,15.10
2023-01-26T20:04:03.251Z,15.63
2023-01-26T20:06:33.638Z,14.97
2023-01-26T20:09:04.327Z,13.47
2023-01-26T20:11:33.149Z,14.20
2023-01-26T20:14:04.470Z,15.30
2023-01-26T20:16:34.949Z,16.60
2023-01-26T20:19:04.099Z,17.20
2023-01-26T20:21:33.573Z,17.30
2023-01-26T20:24:06.299Z,15.87
2023-01-26T20:26:35.907Z,18.20
2023-01-26T20:29:04.518Z,17.63
2023-01-26T20:31:33.915Z,17.90
2023-01-26T20:34:02.908Z,22.70
2023-01-26T20:36:32.159Z,23.27
2023-01-26T20:39:00.606Z,23.00
2023-01-26T20:41:31.202Z,16.50
2023-01-26T20:44:03.640Z,15.60
2023-01-26T20:46:41.295Z,18.97
2023-01-26T20:49:14.515Z,17.83
2023-01-26T20:51:44.303Z,15.53
2023-01-26T20:54:15.353Z,13.90
2023-01-26T20:56:46.486Z,18.40
2023-01-26T20:59:14.870Z,18.83
2023-01-26T21:01:43.314Z,17.37
2023-01-26T21:04:11.711Z,16.70
2023-01-26T21:06:40.678Z,16.70
2023-01-26T21:09:11.580Z,16.83
2023-01-26T21:11:41.306Z,16.37
2023-01-26T21:14:14.341Z,19.27
2023-01-26T21:16:43.150Z,18.63
2023-01-26T21:19:11.602Z,12.10
2023-01-26T21:21:39.986Z,14.90
2023-01-26T21:24:08.822Z,14.67
2023-01-26T21:26:37.250Z,16.23
2023-01-26T21:29:06.355Z,15.90
2023-01-26T21:31:35.674Z,13.93
2023-01-26T21:34:04.135Z,15.50
2023-01-26T21:36:34.807Z,14.67
2023-01-26T21:39:03.506Z,16.00
2023-01-26T21:41:52.189Z,14.57
2023-01-26T21:44:25.069Z,14.40
2023-01-26T21:46:59.404Z,15.87
2023-01-26T21:49:29.423Z,15.43
2023-01-26T21:52:16.574Z,19.73
2023-01-26T21:54:45.034Z,15.33
2023-01-26T21:57:31.723Z,13.43
2023-01-26T22:00:00.156Z,15.33
2023-01-26T22:02:28.528Z,15.27
2023-01-26T22:04:56.914Z,13.90
2023-01-26T22:07:25.368Z,16.93
2023-01-26T22:09:53.723Z,16.20
2023-01-26T22:12:23.746Z,17.20
2023-01-26T22:14:55.050Z,16.13
2023-01-26T22:17:23.705Z,17.20
2023-01-26T22:19:52.165Z,16.47
2023-01-26T22:22:20.695Z,15.27
2023-01-26T22:24:49.126Z,20.83
2023-01-26T22:27:17.483Z,16.47
2023-01-26T22:29:45.885Z,17.53
2023-01-26T22:32:14.462Z,15.97
2023-01-26T22:34:42.814Z,19.83
2023-01-26T22:37:11.239Z,17.57
2023-01-26T22:39:39.604Z,16.57
2023-01-26T22:42:08.051Z,18.00
2023-01-26T22:44:36.605Z,14.70
2023-01-26T22:47:05.575Z,17.27
2023-01-26T22:49:33.957Z,18.60
2023-01-26T22:52:02.366Z,15.50
2023-01-26T22:54:30.772Z,15.50
2023-01-26T22:56:59.130Z,21.40
2023-01-26T22:59:27.614Z,14.83
2023-01-26T23:01:56.025Z,14.27
2023-01-26T23:04:24.432Z,16.30
2023-01-26T23:06:52.857Z,13.80
2023-01-26T23:09:21.305Z,14.23
2023-01-26T23:11:49.689Z,14.17
2023-01-26T23:14:18.158Z,14.60
2023-01-26T23:16:46.621Z,16.60
2023-01-26T23:19:15.018Z,19.20
2023-01-26T23:21:43.447Z,18.00
2023-01-26T23:24:11.846Z,15.07
2023-01-26T23:26:40.274Z,16.43
2023-01-26T23:29:08.718Z,14.93
2023-01-26T23:31:37.144Z,15.70
2023-01-26T23:34:05.585Z,14.63
2023-01-26T23:36:36.984Z,20.93
2023-01-26T23:39:05.384Z,12.23
2023-01-26T23:41:33.737Z,14.27
2023-01-26T23:44:02.155Z,12.60
2023-01-26T23:46:30.670Z,13.20
2023-01-26T23:48:59.125Z,13.10
2023-01-26T23:51:27.531Z,14.30
2023-01-26T23:53:56.654Z,13.37
2023-01-26T23:56:25.065Z,14.67
2023-01-26T23:58:53.514Z,14.30
